Time;durP1;ratioP1;P1;durP2;ratioP2;P2;SDS_P1;SDS_P2;PMS_P1;PMS_P2;Temp;Humidity;BMP_temperature;BMP_pressure;BME280_temperature;BME280_humidity;BME280_pressure;Samples;Min_cycle;Max_cycle;Signal;HPM_P1;HPM_P2
2023/03/24 00:00:20;;;;;;;9.77;3.03;;;;;;;11.78;100.00;99608.78;4922283;29;20522;-77
2023/03/24 00:02:47;;;;;;;6.60;3.33;;;;;;;11.81;100.00;99613.09;4913595;29;20043;-77
2023/03/24 00:05:19;;;;;;;6.00;3.22;;;;;;;11.85;100.00;99614.47;4917588;29;20476;-79
2023/03/24 00:07:45;;;;;;;7.03;3.40;;;;;;;11.88;100.00;99616.06;4902257;29;20039;-78
2023/03/24 00:10:17;;;;;;;10.32;3.50;;;;;;;11.87;100.00;99600.59;4903439;29;20313;-79
2023/03/24 00:12:44;;;;;;;7.20;3.15;;;;;;;11.84;100.00;99593.56;4929453;29;20043;-79
2023/03/24 00:15:20;;;;;;;7.93;4.05;;;;;;;11.89;100.00;99593.09;4902141;29;20142;-78
2023/03/24 00:17:49;;;;;;;7.25;3.75;;;;;;;11.87;100.00;99582.28;4898798;29;20471;-77
2023/03/24 00:20:15;;;;;;;8.73;3.90;;;;;;;11.88;100.00;99586.72;4920286;29;20067;-76
2023/03/24 00:22:49;;;;;;;7.60;3.50;;;;;;;11.87;100.00;99574.06;4921975;29;20044;-77
2023/03/24 00:25:22;;;;;;;7.63;3.30;;;;;;;11.91;100.00;99569.09;4919121;29;20079;-76
2023/03/24 00:27:50;;;;;;;8.35;3.72;;;;;;;11.89;100.00;99562.94;4916238;29;20163;-77
2023/03/24 00:30:17;;;;;;;11.32;3.53;;;;;;;11.97;100.00;99573.09;4919925;29;20031;-77
2023/03/24 00:32:43;;;;;;;8.75;3.53;;;;;;;11.86;100.00;99563.25;4918640;29;20419;-76
2023/03/24 00:35:13;;;;;;;6.60;3.80;;;;;;;11.91;100.00;99552.66;4939219;29;20032;-77
2023/03/24 00:37:40;;;;;;;10.35;4.30;;;;;;;11.95;100.00;99554.94;4916851;29;20532;-77
2023/03/24 00:40:12;;;;;;;8.45;3.92;;;;;;;11.95;100.00;99562.28;4898110;29;20032;-77
2023/03/24 00:42:40;;;;;;;7.05;4.28;;;;;;;12.01;100.00;99574.50;4931477;29;20045;-78
2023/03/24 00:45:08;;;;;;;7.78;4.10;;;;;;;11.94;100.00;99566.94;4916552;29;20039;-77
2023/03/24 00:47:37;;;;;;;5.78;3.85;;;;;;;11.99;100.00;99549.13;4918664;29;20050;-76
2023/03/24 00:50:10;;;;;;;10.77;4.43;;;;;;;11.98;100.00;99552.88;4889796;29;20118;-78
2023/03/24 00:52:36;;;;;;;12.10;4.10;;;;;;;12.02;100.00;99546.03;4910567;29;20138;-78
2023/03/24 00:55:04;;;;;;;9.88;3.90;;;;;;;12.02;100.00;99537.81;4919348;29;20047;-78
2023/03/24 00:57:33;;;;;;;8.82;4.55;;;;;;;12.04;100.00;99538.53;4938783;29;20038;-77
2023/03/24 01:00:05;;;;;;;8.23;4.07;;;;;;;12.11;100.00;99534.09;4939013;29;20068;-76
2023/03/24 01:02:32;;;;;;;4.95;3.80;;;;;;;12.09;100.00;99530.66;4911597;29;20069;-77
2023/03/24 01:05:00;;;;;;;8.80;3.70;;;;;;;12.13;100.00;99521.94;4909875;29;20031;-77
2023/03/24 01:07:29;;;;;;;11.82;4.05;;;;;;;12.07;100.00;99521.75;4939260;29;20092;-76
2023/03/24 01:09:56;;;;;;;6.43;3.75;;;;;;;12.08;100.00;99523.44;4917217;29;20082;-77
2023/03/24 01:12:28;;;;;;;6.80;3.72;;;;;;;12.08;100.00;99520.69;4905400;29;20091;-76
2023/03/24 01:14:54;;;;;;;8.75;3.88;;;;;;;12.10;100.00;99518.63;4924007;29;20067;-77
2023/03/24 01:17:28;;;;;;;8.40;3.78;;;;;;;12.14;100.00;99514.56;4925335;29;20039;-78
2023/03/24 01:19:54;;;;;;;7.72;3.90;;;;;;;12.09;100.00;99501.31;4927422;29;20039;-77
2023/03/24 01:22:21;;;;;;;13.20;3.75;;;;;;;12.05;100.00;99499.97;4911239;29;20465;-77
2023/03/24 01:24:48;;;;;;;8.13;4.20;;;;;;;12.10;100.00;99508.53;4912250;29;20062;-77
2023/03/24 01:27:13;;;;;;;6.10;3.88;;;;;;;12.11;100.00;99496.53;4927714;29;20023;-77
2023/03/24 01:29:39;;;;;;;5.95;3.08;;;;;;;12.11;100.00;99498.41;4913006;29;20038;-77
2023/03/24 01:32:05;;;;;;;9.18;3.97;;;;;;;12.17;100.00;99507.88;4923746;29;20038;-78
2023/03/24 01:34:31;;;;;;;7.72;3.70;;;;;;;12.07;100.00;99484.19;4921466;29;20028;-77
2023/03/24 01:36:58;;;;;;;11.68;4.20;;;;;;;12.17;100.00;99492.28;4921697;29;20035;-77
2023/03/24 01:39:23;;;;;;;11.45;3.72;;;;;;;12.16;100.00;99484.22;4920641;29;20031;-78
2023/03/24 01:41:49;;;;;;;8.65;4.55;;;;;;;12.08;100.00;99466.69;4919146;29;20121;-79
2023/03/24 01:44:33;;;;;;;10.60;4.72;;;;;;;12.21;100.00;99481.81;4934322;29;20119;-78
2023/03/24 01:46:59;;;;;;;8.50;4.32;;;;;;;12.06;100.00;99446.78;4936101;29;20467;-77
2023/03/24 01:49:36;;;;;;;8.98;4.53;;;;;;;12.17;100.00;99473.06;4903861;29;20044;-76
2023/03/24 01:52:10;;;;;;;8.90;4.45;;;;;;;12.13;100.00;99461.56;4934269;28;20046;-78
2023/03/24 01:54:40;;;;;;;11.90;4.53;;;;;;;12.14;100.00;99465.16;4913132;29;20044;-76
2023/03/24 01:57:31;;;;;;;8.52;4.68;;;;;;;12.13;100.00;99447.84;4922202;29;20031;-77
2023/03/24 01:59:59;;;;;;;10.95;4.75;;;;;;;12.12;100.00;99456.25;4927030;29;20064;-76
2023/03/24 02:02:26;;;;;;;9.20;4.90;;;;;;;12.16;100.00;99454.88;4943583;29;20040;-76
2023/03/24 02:05:03;;;;;;;14.45;5.68;;;;;;;12.13;100.00;99444.22;4926958;29;20031;-76
2023/03/24 02:07:59;;;;;;;13.77;5.25;;;;;;;12.16;100.00;99452.13;4918045;29;20063;-77
2023/03/24 02:10:25;;;;;;;10.85;5.07;;;;;;;12.08;100.00;99433.75;4914527;29;20911;-76
2023/03/24 02:12:50;;;;;;;15.60;5.88;;;;;;;12.07;100.00;99431.22;4925764;29;20038;-76
2023/03/24 02:15:17;;;;;;;10.70;5.50;;;;;;;12.12;100.00;99429.66;4909690;29;20123;-76
2023/03/24 02:18:09;;;;;;;18.08;6.93;;;;;;;12.18;100.00;99425.38;4924837;29;20044;-76
2023/03/24 02:20:41;;;;;;;16.33;6.90;;;;;;;12.26;100.00;99430.03;4925228;29;20035;-76
2023/03/24 02:23:38;;;;;;;14.50;6.47;;;;;;;12.21;100.00;99421.44;4925042;29;20074;-76
2023/03/24 02:26:32;;;;;;;13.93;6.47;;;;;;;12.21;100.00;99415.97;4934069;29;20043;-76
2023/03/24 02:29:04;;;;;;;13.63;7.25;;;;;;;12.32;100.00;99422.00;4912031;29;20099;-78
2023/03/24 02:31:33;;;;;;;9.57;5.97;;;;;;;12.37;100.00;99426.13;4932379;29;20036;-78
2023/03/24 02:34:10;;;;;;;17.63;6.63;;;;;;;12.44;100.00;99428.00;4924117;29;20040;-77
2023/03/24 02:37:03;;;;;;;11.50;6.00;;;;;;;12.52;100.00;99427.16;4924187;29;20071;-78
2023/03/24 02:39:38;;;;;;;;;;;;;;;12.59;100.00;99416.38;4938401;29;20035;-78
2023/03/24 02:42:20;;;;;;;13.63;6.65;;;;;;;12.59;100.00;99427.34;4942584;29;20125;-77
2023/03/24 02:45:18;;;;;;;13.75;6.90;;;;;;;12.57;100.00;99421.19;4925926;29;20036;-77
2023/03/24 02:47:50;;;;;;;15.73;7.03;;;;;;;12.61;100.00;99409.69;4927807;29;20043;-77
2023/03/24 02:50:31;;;;;;;16.92;7.38;;;;;;;12.61;100.00;99411.56;4906132;29;20027;-77
2023/03/24 02:53:05;;;;;;;20.50;7.85;;;;;;;12.60;100.00;99427.19;4909371;29;21921;-80
2023/03/24 02:55:35;;;;;;;17.60;6.35;;;;;;;12.54;100.00;99421.50;4912994;29;20050;-76
2023/03/24 02:58:34;;;;;;;24.67;8.35;;;;;;;12.61;100.00;99439.91;4929863;29;20091;-76
2023/03/24 03:01:06;;;;;;;22.27;7.50;;;;;;;12.53;100.00;99430.75;4926749;29;20066;-77
2023/03/24 03:03:38;;;;;;;19.35;8.43;;;;;;;12.55;100.00;99429.59;4908790;29;20050;-76
2023/03/24 03:06:27;;;;;;;30.73;9.68;;;;;;;12.57;100.00;99446.72;4909995;29;20051;-76
2023/03/24 03:08:56;;;;;;;23.63;9.20;;;;;;;12.50;100.00;99448.44;4925739;29;20038;-75
2023/03/24 03:11:22;;;;;;;24.35;8.43;;;;;;;12.39;100.00;99448.78;4923620;29;20163;-76
2023/03/24 03:13:53;;;;;;;30.45;11.35;;;;;;;12.47;100.00;99457.03;4938001;29;20388;-75
2023/03/24 03:16:33;;;;;;;24.35;9.88;;;;;;;12.43;100.00;99462.00;4938789;29;20035;-76
2023/03/24 03:19:02;;;;;;;34.45;10.27;;;;;;;12.35;100.00;99461.09;4937561;29;20048;-77
2023/03/24 03:21:38;;;;;;;25.33;10.90;;;;;;;12.28;100.00;99437.09;4936536;29;20028;-75
2023/03/24 03:24:25;;;;;;;28.77;10.88;;;;;;;12.29;100.00;99452.50;4944241;29;20449;-76
2023/03/24 03:26:56;;;;;;;23.88;9.45;;;;;;;12.32;100.00;99460.41;4923973;29;20046;-76
2023/03/24 03:29:27;;;;;;;23.60;9.70;;;;;;;12.07;100.00;99447.66;4938909;29;20032;-75
2023/03/24 03:32:06;;;;;;;27.30;11.55;;;;;;;12.35;100.00;99461.09;4919020;29;20091;-76
2023/03/24 03:34:48;;;;;;;25.88;9.88;;;;;;;12.40;100.00;99464.22;4907899;29;20102;-77
2023/03/24 03:37:25;;;;;;;28.23;9.63;;;;;;;12.39;100.00;99477.06;4918614;29;20036;-76
2023/03/24 03:40:03;;;;;;;19.17;8.88;;;;;;;12.43;100.00;99483.97;4934168;29;20113;-77
2023/03/24 03:42:29;;;;;;;15.70;7.78;;;;;;;12.37;100.00;99490.13;4905861;29;20123;-75
2023/03/24 03:44:55;;;;;;;16.17;6.68;;;;;;;12.23;100.00;99505.34;4919377;29;20063;-76
2023/03/24 03:47:21;;;;;;;19.73;7.80;;;;;;;12.19;100.00;99517.66;4905319;29;20403;-75
2023/03/24 03:49:48;;;;;;;14.93;7.07;;;;;;;12.19;100.00;99523.16;4930908;29;20036;-75
2023/03/24 03:52:15;;;;;;;14.10;6.85;;;;;;;12.13;100.00;99521.94;4921521;29;20444;-75
2023/03/24 03:54:42;;;;;;;17.48;8.00;;;;;;;12.22;100.00;99546.66;4926269;29;20060;-77
2023/03/24 03:57:09;;;;;;;16.55;5.97;;;;;;;12.06;100.00;99526.34;4907817;29;20035;-76
2023/03/24 03:59:36;;;;;;;14.45;5.05;;;;;;;11.85;100.00;99536.84;4924364;29;20509;-75
2023/03/24 04:02:27;;;;;;;11.77;3.78;;;;;;;11.65;100.00;99541.69;4897588;29;20058;-77
2023/03/24 04:05:25;;;;;;;8.15;2.78;;;;;;;11.58;100.00;99557.91;4908862;29;20040;-77
2023/03/24 04:08:11;;;;;;;10.10;2.60;;;;;;;11.52;100.00;99564.88;4922570;29;20040;-76
2023/03/24 04:10:55;;;;;;;7.05;2.53;;;;;;;11.47;100.00;99578.22;4929697;29;20036;-77
2023/03/24 04:13:28;;;;;;;9.70;2.20;;;;;;;11.21;100.00;99595.47;4929268;29;20035;-77
2023/03/24 04:16:06;;;;;;;18.65;2.45;;;;;;;11.19;100.00;99605.72;4942647;29;20045;-76
2023/03/24 04:18:34;;;;;;;27.02;3.00;;;;;;;11.21;100.00;99622.88;4943183;29;20209;-77
2023/03/24 04:21:32;;;;;;;17.67;2.65;;;;;;;11.09;100.00;99621.38;4942739;29;20091;-76
2023/03/24 04:24:27;;;;;;;9.35;2.45;;;;;;;11.11;100.00;99632.19;4892485;29;20110;-77
2023/03/24 04:26:53;;;;;;;13.32;2.83;;;;;;;11.15;100.00;99645.41;4942262;29;20039;-79
2023/03/24 04:29:41;;;;;;;14.95;3.20;;;;;;;11.01;100.00;99659.63;4926466;29;20039;-77
2023/03/24 04:32:18;;;;;;;10.25;3.55;;;;;;;10.88;100.00;99643.56;4925047;29;20028;-77
2023/03/24 04:34:49;;;;;;;16.98;5.10;;;;;;;10.75;100.00;99659.50;4925040;29;20043;-78
2023/03/24 04:37:21;;;;;;;16.02;4.70;;;;;;;10.66;100.00;99642.97;4909801;29;20091;-77
2023/03/24 04:39:49;;;;;;;15.27;4.63;;;;;;;10.73;100.00;99651.44;4932614;29;20106;-77
2023/03/24 04:42:22;;;;;;;14.00;4.72;;;;;;;10.71;100.00;99658.94;4938498;29;20035;-77
2023/03/24 04:44:50;;;;;;;16.70;5.15;;;;;;;10.62;100.00;99666.19;4936308;29;20051;-78
2023/03/24 04:47:20;;;;;;;20.85;5.43;;;;;;;10.60;100.00;99670.94;4922630;29;20035;-77
2023/03/24 04:49:45;;;;;;;22.63;6.80;;;;;;;10.62;100.00;99676.28;4907724;29;20031;-77
2023/03/24 04:52:11;;;;;;;19.30;5.78;;;;;;;10.56;100.00;99676.88;4903283;29;20036;-80
2023/03/24 04:54:36;;;;;;;17.70;6.05;;;;;;;10.52;100.00;99686.41;4929816;29;20174;-77
2023/03/24 04:57:02;;;;;;;26.90;6.82;;;;;;;10.42;100.00;99681.81;4906084;29;20047;-78
2023/03/24 04:59:31;;;;;;;23.13;7.18;;;;;;;10.55;100.00;99684.22;4926624;29;20042;-78
2023/03/24 05:01:56;;;;;;;18.98;6.25;;;;;;;10.42;100.00;99697.38;4936480;29;20104;-79
2023/03/24 05:04:27;;;;;;;38.67;7.40;;;;;;;10.33;100.00;99688.22;4877411;29;20063;-78
2023/03/24 05:06:53;;;;;;;31.45;6.00;;;;;;;10.31;100.00;99703.84;4936134;29;20399;-77
2023/03/24 05:09:20;;;;;;;23.85;4.88;;;;;;;10.38;100.00;99718.72;4898280;29;20040;-80
2023/03/24 05:11:47;;;;;;;26.00;4.57;;;;;;;10.32;100.00;99712.94;4940882;29;20043;-77
2023/03/24 05:14:13;;;;;;;20.17;3.83;;;;;;;10.29;100.00;99708.63;4923064;29;20039;-79
2023/03/24 05:16:39;;;;;;;27.92;3.72;;;;;;;10.23;100.00;99706.47;4910403;29;20126;-77
2023/03/24 05:19:04;;;;;;;19.98;3.40;;;;;;;10.19;100.00;99729.69;4912836;29;20063;-77
2023/03/24 05:21:30;;;;;;;31.10;3.00;;;;;;;10.21;100.00;99733.13;4927138;29;20046;-77
2023/03/24 05:23:56;;;;;;;16.00;2.78;;;;;;;10.17;100.00;99731.69;4939761;29;20036;-77
2023/03/24 05:26:21;;;;;;;27.67;3.35;;;;;;;10.17;100.00;99739.91;4911748;29;20032;-78
2023/03/24 05:28:47;;;;;;;16.92;2.50;;;;;;;10.05;100.00;99734.59;4926212;29;20046;-76
2023/03/24 05:31:13;;;;;;;21.30;2.08;;;;;;;10.06;100.00;99730.84;4909628;29;20488;-77
2023/03/24 05:33:38;;;;;;;24.40;3.47;;;;;;;10.08;100.00;99745.25;4922988;29;20484;-78
2023/03/24 05:36:04;;;;;;;19.42;2.67;;;;;;;10.06;100.00;99730.84;4911804;29;20504;-77
2023/03/24 05:38:29;;;;;;;17.48;2.97;;;;;;;10.10;100.00;99740.50;4903176;29;20046;-78
2023/03/24 05:40:59;;;;;;;21.67;2.45;;;;;;;10.10;100.00;99740.50;4917092;29;20028;-78
2023/03/24 05:43:26;;;;;;;22.98;1.98;;;;;;;10.05;100.00;99747.38;4901574;29;20036;-78
2023/03/24 05:45:52;;;;;;;26.55;3.00;;;;;;;10.03;100.00;99750.25;4902934;29;20085;-78
2023/03/24 05:48:17;;;;;;;26.65;2.58;;;;;;;10.05;100.00;99752.84;4923132;29;20032;-77
2023/03/24 05:50:43;;;;;;;15.90;2.25;;;;;;;10.00;100.00;99763.38;4909878;29;20027;-78
2023/03/24 05:53:08;;;;;;;22.45;2.55;;;;;;;10.03;100.00;99768.56;4888318;29;20491;-81
2023/03/24 05:55:35;;;;;;;24.60;2.22;;;;;;;10.09;100.00;99785.25;4923609;29;20055;-76
2023/03/24 05:58:03;;;;;;;43.97;3.85;;;;;;;9.97;100.00;99759.06;4905602;29;20063;-77
2023/03/24 06:00:30;;;;;;;28.42;2.95;;;;;;;10.14;100.00;99789.44;4905248;29;20599;-78
2023/03/24 06:02:56;;;;;;;18.80;2.47;;;;;;;10.06;100.00;99784.69;4922480;29;20031;-76
2023/03/24 06:05:22;;;;;;;23.88;1.95;;;;;;;10.04;100.00;99794.91;4922822;29;20071;-77
2023/03/24 06:07:48;;;;;;;23.77;2.45;;;;;;;10.04;100.00;99798.50;4939541;29;20047;-78
2023/03/24 06:10:17;;;;;;;13.98;1.90;;;;;;;10.23;100.00;99789.41;4946190;29;20039;-77
2023/03/24 06:12:43;;;;;;;28.17;2.25;;;;;;;10.26;100.00;99802.81;4914453;29;20039;-77
2023/03/24 06:15:10;;;;;;;29.05;2.30;;;;;;;10.36;100.00;99807.44;4927822;29;20095;-77
2023/03/24 06:17:36;;;;;;;29.08;2.30;;;;;;;10.38;100.00;99806.28;4926719;29;20066;-77
2023/03/24 06:20:04;;;;;;;32.10;2.72;;;;;;;10.40;100.00;99804.25;4925938;29;20119;-77
2023/03/24 06:22:32;;;;;;;41.10;2.63;;;;;;;10.44;100.00;99805.66;4941806;29;20035;-78
2023/03/24 06:24:58;;;;;;;29.58;2.25;;;;;;;10.45;100.00;99810.16;4936183;29;20427;-77
2023/03/24 06:27:28;;;;;;;41.13;2.28;;;;;;;10.52;100.00;99791.25;4928294;29;20032;-80
2023/03/24 06:29:55;;;;;;;25.35;2.35;;;;;;;10.74;100.00;99798.28;4921142;29;20058;-77
2023/03/24 06:32:20;;;;;;;33.53;2.88;;;;;;;10.78;100.00;99804.31;4943588;29;20044;-78
2023/03/24 06:34:46;;;;;;;29.05;2.67;;;;;;;10.94;100.00;99809.16;4926557;29;20026;-82
2023/03/24 06:37:12;;;;;;;31.23;2.40;;;;;;;11.00;100.00;99814.03;4948111;29;20039;-78
2023/03/24 06:39:37;;;;;;;26.92;3.45;;;;;;;11.15;100.00;99808.91;4918816;29;20059;-78
2023/03/24 06:42:03;;;;;;;26.73;2.88;;;;;;;10.95;100.00;99808.13;4917234;29;20076;-78
2023/03/24 06:44:29;;;;;;;21.08;2.03;;;;;;;11.19;100.00;99816.69;4908180;29;20412;-78
2023/03/24 06:46:55;;;;;;;20.38;2.63;;;;;;;11.12;100.00;99818.31;4920638;29;20040;-78
2023/03/24 06:52:43;;;;;;;19.75;1.67;;;;;;;11.42;100.00;99820.91;4927791;29;20340;-78
2023/03/24 06:55:08;;;;;;;37.75;2.33;;;;;;;11.37;100.00;99824.09;4934254;29;20044;-78
2023/03/24 06:57:34;;;;;;;40.38;4.30;;;;;;;11.27;100.00;99831.53;4925735;29;20064;-78
2023/03/24 07:00:00;;;;;;;34.85;2.65;;;;;;;11.18;100.00;99831.41;4919613;29;20496;-78
2023/03/24 07:02:33;;;;;;;28.88;3.63;;;;;;;11.17;100.00;99824.19;4926939;29;20484;-77
2023/03/24 07:04:59;;;;;;;39.88;3.50;;;;;;;11.69;100.00;99820.00;4924667;29;20108;-78
2023/03/24 07:07:25;;;;;;;40.00;2.53;;;;;;;11.51;100.00;99825.47;4906547;29;20102;-77
2023/03/24 07:09:51;;;;;;;21.15;3.10;;;;;;;11.72;100.00;99827.94;4906610;29;20142;-77
2023/03/24 07:12:16;;;;;;;33.17;4.07;;;;;;;11.70;100.00;99829.97;4893522;29;20038;-77
2023/03/24 07:14:41;;;;;;;42.08;2.78;;;;;;;11.72;100.00;99831.56;4918588;29;20123;-77
2023/03/24 07:17:07;;;;;;;41.05;3.05;;;;;;;11.67;100.00;99831.13;4898317;29;20042;-78
2023/03/24 07:19:32;;;;;;;39.22;2.40;;;;;;;11.82;100.00;99833.34;4920432;29;20072;-77
2023/03/24 07:21:58;;;;;;;31.52;3.05;;;;;;;11.75;100.00;99841.34;4888053;29;20128;-77
2023/03/24 07:24:23;;;;;;;34.42;2.78;;;;;;;11.79;100.00;99837.28;4934863;29;20503;-76
2023/03/24 07:26:49;;;;;;;35.30;3.10;;;;;;;11.74;100.00;99836.84;4915343;29;20051;-79
2023/03/24 07:29:14;;;;;;;25.92;2.45;;;;;;;11.83;100.00;99824.13;4886675;29;20102;-78
2023/03/24 07:31:40;;;;;;;29.25;2.72;;;;;;;12.07;100.00;99840.84;4872607;29;20118;-78
2023/03/24 07:34:06;;;;;;;36.55;3.05;;;;;;;11.96;100.00;99852.06;4902542;29;20039;-79
2023/03/24 07:36:32;;;;;;;32.35;2.78;;;;;;;12.04;100.00;99835.69;4905312;29;20036;-78
2023/03/24 07:38:57;;;;;;;34.20;4.57;;;;;;;12.04;100.00;99859.50;4921213;29;20032;-78
2023/03/24 07:41:23;;;;;;;33.65;3.00;;;;;;;12.04;100.00;99849.41;4905518;29;20028;-78
2023/03/24 07:43:49;;;;;;;23.98;3.05;;;;;;;12.16;100.00;99857.41;4921425;29;20395;-78
2023/03/24 07:46:15;;;;;;;31.83;2.35;;;;;;;12.21;100.00;99866.03;4920707;29;20054;-78
2023/03/24 07:48:41;;;;;;;30.67;2.22;;;;;;;12.84;100.00;99863.13;4921165;29;20039;-78
2023/03/24 07:51:07;;;;;;;26.48;2.17;;;;;;;12.56;100.00;99870.63;4908635;29;20494;-79
2023/03/24 07:53:33;;;;;;;38.85;2.40;;;;;;;12.27;100.00;99877.22;4928632;29;20052;-78
2023/03/24 07:55:59;;;;;;;22.58;1.85;;;;;;;12.53;100.00;99870.06;4887242;29;20051;-79
2023/03/24 07:58:25;;;;;;;33.08;2.00;;;;;;;13.02;100.00;99870.47;4939936;29;20098;-79
2023/03/24 08:00:50;;;;;;;25.83;3.15;;;;;;;12.57;100.00;99877.84;4923171;29;20449;-78
2023/03/24 08:03:16;;;;;;;28.88;1.98;;;;;;;12.86;100.00;99890.44;4891019;29;20059;-78
2023/03/24 08:05:43;;;;;;;33.38;2.38;;;;;;;13.24;100.00;99886.38;4921211;29;20054;-78
2023/03/24 08:08:08;;;;;;;20.33;2.80;;;;;;;12.85;100.00;99896.94;4937408;29;20035;-78
2023/03/24 08:10:34;;;;;;;33.15;4.05;;;;;;;12.89;100.00;99881.88;4903905;29;20040;-78
2023/03/24 08:12:59;;;;;;;29.70;2.75;;;;;;;13.54;100.00;99903.44;4920369;29;20387;-78
2023/03/24 08:15:26;;;;;;;26.02;2.50;;;;;;;13.51;100.00;99890.00;4937529;29;20039;-78
2023/03/24 08:17:52;;;;;;;36.17;2.65;;;;;;;13.59;100.00;99900.16;4919975;29;20447;-78
2023/03/24 08:20:20;;;;;;;47.72;3.65;;;;;;;13.59;100.00;99912.06;4920363;29;20032;-78
2023/03/24 08:22:53;;;;;;;34.38;2.67;;;;;;;13.71;100.00;99923.63;4920820;29;20032;-79
2023/03/24 08:25:20;;;;;;;38.97;3.40;;;;;;;13.84;100.00;99923.16;4889900;29;20050;-80
2023/03/24 08:27:46;;;;;;;32.92;3.00;;;;;;;13.36;100.00;99910.88;4920633;29;20107;-79
2023/03/24 08:30:17;;;;;;;38.55;2.97;;;;;;;12.93;100.00;99912.63;4920405;29;20070;-79
2023/03/24 08:32:55;;;;;;;31.02;2.80;;;;;;;12.80;100.00;99921.28;4920292;29;20403;-79
2023/03/24 08:35:24;;;;;;;45.97;3.28;;;;;;;12.76;100.00;99906.16;4919548;29;20548;-79
2023/03/24 08:37:49;;;;;;;33.95;2.85;;;;;;;12.53;100.00;99909.41;4938109;29;20031;-79
2023/03/24 08:40:18;;;;;;;29.98;2.85;;;;;;;12.68;100.00;99932.50;4920687;29;20120;-80
2023/03/24 08:42:48;;;;;;;29.40;2.85;;;;;;;13.56;100.00;99922.50;4919946;29;20032;-79
2023/03/24 08:45:14;;;;;;;15.13;2.10;;;;;;;14.22;100.00;99918.13;4922102;29;20031;-79
2023/03/24 08:47:40;;;;;;;32.72;4.10;;;;;;;14.67;100.00;99922.31;4920554;29;20157;-79
2023/03/24 08:50:07;;;;;;;28.95;2.88;;;;;;;14.88;100.00;99929.25;4904345;29;20059;-80
2023/03/24 08:52:32;;;;;;;25.05;2.50;;;;;;;13.82;100.00;99899.59;4904401;29;20075;-79
2023/03/24 08:54:58;;;;;;;27.42;2.55;;;;;;;13.88;100.00;99915.44;4903929;29;20127;-80
2023/03/24 08:57:24;;;;;;;18.85;2.20;;;;;;;14.89;100.00;99919.94;4919662;29;20039;-80
2023/03/24 08:59:49;;;;;;;24.95;3.25;;;;;;;14.65;100.00;99923.56;4904530;29;20043;-80
2023/03/24 09:02:15;;;;;;;30.67;3.25;;;;;;;14.78;100.00;99921.13;4930463;29;20036;-80
2023/03/24 09:04:41;;;;;;;30.20;2.33;;;;;;;14.81;100.00;99919.94;4927389;29;20059;-80
2023/03/24 09:07:08;;;;;;;19.77;1.63;;;;;;;15.12;100.00;99930.25;4888423;29;20143;-80
2023/03/24 09:09:33;;;;;;;23.48;2.40;;;;;;;15.21;100.00;99929.22;4937236;29;20035;-80
2023/03/24 09:11:59;;;;;;;18.60;2.13;;;;;;;15.44;100.00;99932.94;4937830;29;20380;-80
2023/03/24 09:14:26;;;;;;;27.63;2.72;;;;;;;15.59;100.00;99934.97;4903292;29;20036;-80
2023/03/24 09:16:51;;;;;;;22.95;2.92;;;;;;;15.52;100.00;99925.69;4904275;29;20028;-80
2023/03/24 09:19:17;;;;;;;31.17;2.58;;;;;;;14.89;100.00;99937.34;4889003;29;20036;-80
2023/03/24 09:21:45;;;;;;;27.98;2.83;;;;;;;14.87;100.00;99935.78;4920225;29;20032;-80
2023/03/24 09:24:10;;;;;;;29.83;2.30;;;;;;;14.58;100.00;99922.50;4919252;29;20043;-80
2023/03/24 09:26:36;;;;;;;12.85;1.35;;;;;;;14.32;100.00;99940.00;4902686;29;20396;-80
2023/03/24 09:29:02;;;;;;;26.75;2.83;;;;;;;13.83;100.00;99946.19;4906244;29;20504;-81
2023/03/24 09:31:27;;;;;;;31.75;3.45;;;;;;;13.78;100.00;99941.19;4897977;29;20020;-80
2023/03/24 09:33:53;;;;;;;29.95;2.35;;;;;;;14.20;100.00;99935.81;4921111;29;20405;-80
2023/03/24 09:36:18;;;;;;;18.40;1.88;;;;;;;15.79;100.00;99936.34;4885988;29;20040;-80
2023/03/24 09:38:44;;;;;;;20.50;2.15;;;;;;;15.36;100.00;99948.66;4857514;29;20043;-80
2023/03/24 09:41:17;;;;;;;24.05;2.42;;;;;;;14.93;100.00;99942.50;4910065;29;20040;-80
2023/03/24 09:43:53;;;;;;;21.23;1.73;;;;;;;14.90;100.00;99949.22;4933734;29;20546;-80
2023/03/24 09:46:33;;;;;;;24.00;3.42;;;;;;;14.13;100.00;99953.03;4923142;29;20408;-82
2023/03/24 09:48:58;;;;;;;25.77;2.10;;;;;;;13.79;100.00;99945.66;4901726;29;20028;-80
2023/03/24 09:51:31;;;;;;;30.17;2.00;;;;;;;13.58;100.00;99959.81;4913412;29;20054;-79
2023/03/24 09:54:21;;;;;;;32.08;1.90;;;;;;;13.42;100.00;99946.84;4940457;28;20043;-80
2023/03/24 09:56:47;;;;;;;25.42;1.98;;;;;;;13.48;100.00;99963.69;4924043;29;20043;-80
2023/03/24 09:59:28;;;;;;;23.25;2.42;;;;;;;13.67;100.00;99962.63;4938954;29;20082;-80
2023/03/24 10:01:55;;;;;;;29.30;2.45;;;;;;;13.78;100.00;99965.09;4907149;29;20111;-80
2023/03/24 10:04:25;;;;;;;34.42;3.70;;;;;;;13.84;100.00;99966.31;4907808;29;20036;-81
2023/03/24 10:06:59;;;;;;;19.50;1.73;;;;;;;13.61;100.00;99961.41;4922977;29;20024;-80
2023/03/24 10:09:27;;;;;;;21.13;2.10;;;;;;;13.71;100.00;99978.66;4939438;29;20028;-80
2023/03/24 10:12:11;;;;;;;20.50;1.77;;;;;;;13.63;100.00;99975.84;4922836;29;20034;-80
2023/03/24 10:14:54;;;;;;;24.38;2.30;;;;;;;13.79;100.00;99977.84;4907592;29;20035;-80
2023/03/24 10:17:36;;;;;;;19.05;2.20;;;;;;;13.70;100.00;99981.56;4939598;29;20036;-80
2023/03/24 10:20:14;;;;;;;13.90;2.00;;;;;;;13.70;100.00;99982.41;4907514;29;20063;-80
2023/03/24 10:23:13;;;;;;;24.98;1.95;;;;;;;13.66;100.00;99977.38;4907926;29;20071;-80
2023/03/24 10:25:53;;;;;;;13.07;1.83;;;;;;;13.67;100.00;99974.47;4898419;29;20051;-80
2023/03/24 10:28:26;;;;;;;29.73;2.17;;;;;;;13.94;100.00;99986.31;4923467;29;20039;-81
2023/03/24 10:30:55;;;;;;;21.50;1.80;;;;;;;13.56;100.00;99977.50;4923031;29;20032;-81
2023/03/24 10:33:21;;;;;;;19.95;2.30;;;;;;;13.66;100.00;99993.91;4939721;29;20050;-80
2023/03/24 10:36:20;;;;;;;21.65;1.80;;;;;;;13.52;100.00;99996.22;4905793;29;20492;-80
2023/03/24 10:38:47;;;;;;;14.10;1.73;;;;;;;13.57;100.00;99987.50;4923049;29;20051;-80
2023/03/24 10:41:21;;;;;;;25.90;2.97;;;;;;;13.92;100.00;99993.88;4906653;29;20024;-80
2023/03/24 10:43:50;;;;;;;21.92;2.42;;;;;;;13.89;100.00;99994.22;4939306;29;20047;-80
2023/03/24 10:46:21;;;;;;;18.35;2.35;;;;;;;13.81;100.00;99997.78;4905387;29;20131;-80
2023/03/24 10:48:53;;;;;;;20.75;1.98;;;;;;;13.74;100.00;99996.69;4920517;29;20463;-80
2023/03/24 10:51:18;;;;;;;23.40;2.13;;;;;;;13.70;100.00;99990.66;4906524;29;20094;-80
2023/03/24 10:53:47;;;;;;;20.92;1.75;;;;;;;13.74;100.00;99980.19;4905270;29;20119;-80
2023/03/24 10:56:46;;;;;;;22.02;2.13;;;;;;;13.72;100.00;99983.09;4906365;29;20039;-81
2023/03/24 10:59:31;;;;;;;13.15;2.00;;;;;;;13.82;100.00;99998.63;4850308;29;20059;-80
2023/03/24 11:02:09;;;;;;;31.15;3.85;;;;;;;13.73;100.00;99995.84;4919239;29;20056;-80
2023/03/24 11:04:40;;;;;;;21.38;1.80;;;;;;;13.67;100.00;99981.88;4920283;29;20044;-80
2023/03/24 11:07:19;;;;;;;11.07;1.75;;;;;;;13.76;100.00;99984.50;4912141;29;20102;-80
2023/03/24 11:10:14;;;;;;;22.15;2.08;;;;;;;14.06;100.00;99990.50;4921909;29;20047;-80
2023/03/24 11:12:42;;;;;;;15.57;1.77;;;;;;;13.96;100.00;99987.88;4923233;29;20031;-80
2023/03/24 11:15:18;;;;;;;20.75;2.75;;;;;;;14.52;100.00;99981.88;4922051;29;20050;-80
2023/03/24 11:17:44;;;;;;;16.05;2.03;;;;;;;14.93;100.00;99997.63;4922596;29;20094;-80
2023/03/24 11:20:27;;;;;;;13.80;1.85;;;;;;;14.67;100.00;99993.13;4891181;29;20104;-81
2023/03/24 11:23:22;;;;;;;18.13;2.30;;;;;;;14.88;100.00;99989.88;4939462;29;20119;-80
2023/03/24 11:26:14;;;;;;;19.98;2.08;;;;;;;14.92;100.00;99990.38;4939663;29;20131;-80
2023/03/24 11:28:49;;;;;;;14.07;1.57;;;;;;;14.61;100.00;99991.03;4938265;29;20475;-80
2023/03/24 11:31:23;;;;;;;20.73;2.70;;;;;;;14.29;100.00;99985.25;4905825;29;20526;-81
2023/03/24 11:34:15;;;;;;;22.23;2.40;;;;;;;14.44;100.00;100001.13;4904759;29;20035;-80
2023/03/24 11:37:05;;;;;;;22.20;2.87;;;;;;;14.37;100.00;99987.16;4919309;29;20028;-80
2023/03/24 11:39:33;;;;;;;21.17;2.05;;;;;;;14.48;100.00;99995.13;4919962;29;20039;-80